Time;durP1;ratioP1;P1;durP2;ratioP2;P2;SDS_P1;SDS_P2;PMS_P1;PMS_P2;Temp;Humidity;BMP_temperature;BMP_pressure;BME280_temperature;BME280_humidity;BME280_pressure;Samples;Min_cycle;Max_cycle;Signal;HPM_P1;HPM_P2
2023/12/13 00:00:37;;;;;;;19.93;11.53;;;8.50;99.90;;;8.02;100.00;96416.63;5046085;28;20854;-74
2023/12/13 00:03:05;;;;;;;14.83;11.90;;;8.50;99.90;;;7.97;100.00;96400.38;5049003;28;20529;-76
2023/12/13 00:05:32;;;;;;;14.70;11.23;;;8.50;99.90;;;8.01;100.00;96404.22;5051538;28;20466;-77
2023/12/13 00:08:00;;;;;;;13.60;11.40;;;8.60;99.90;;;8.08;100.00;96399.50;5047255;28;20674;-75
2023/12/13 00:10:27;;;;;;;12.40;10.73;;;8.60;99.90;;;8.04;100.00;96399.19;5065259;28;20913;-75
2023/12/13 00:12:55;;;;;;;10.40;9.30;;;8.60;99.90;;;8.00;100.00;96403.41;5047696;28;20507;-74
2023/12/13 00:15:23;;;;;;;10.40;7.63;;;8.60;99.90;;;8.02;100.00;96395.91;5055668;28;20974;-76
2023/12/13 00:17:51;;;;;;;6.80;5.50;;;8.60;99.90;;;8.02;100.00;96389.72;5048822;28;20455;-74
2023/12/13 00:20:19;;;;;;;5.70;4.77;;;8.60;99.90;;;8.06;100.00;96390.88;5048308;28;20449;-73
2023/12/13 00:22:46;;;;;;;5.97;4.83;;;8.70;99.90;;;8.09;100.00;96393.06;5045657;28;20457;-76
2023/12/13 00:25:13;;;;;;;4.90;4.37;;;8.70;99.90;;;7.79;100.00;96343.84;5046541;28;21046;-77
2023/12/13 00:27:41;;;;;;;5.63;5.10;;;8.70;99.90;;;8.21;100.00;96409.19;5062464;28;20465;-75
2023/12/13 00:30:09;;;;;;;6.13;5.53;;;8.70;99.90;;;8.18;100.00;96410.47;5047067;28;20493;-74
2023/12/13 00:32:37;;;;;;;6.80;5.40;;;8.80;99.90;;;8.15;100.00;96412.81;5048879;28;20457;-74
2023/12/13 00:35:07;;;;;;;7.30;5.70;;;8.80;99.90;;;8.17;100.00;96413.41;5049751;28;20813;-75
2023/12/13 00:37:34;;;;;;;6.03;5.43;;;8.80;99.90;;;8.20;100.00;96418.31;5045589;28;20449;-74
2023/12/13 00:40:01;;;;;;;6.87;6.20;;;8.80;99.90;;;8.20;100.00;96415.63;5050608;28;20544;-76
2023/12/13 00:42:28;;;;;;;7.30;6.60;;;8.80;99.90;;;8.28;100.00;96425.19;5050745;28;20464;-74
2023/12/13 00:44:56;;;;;;;8.40;6.30;;;8.80;99.90;;;8.14;100.00;96420.09;5051234;28;20466;-75
2023/12/13 00:47:24;;;;;;;7.33;6.37;;;8.80;99.90;;;8.18;100.00;96423.09;5045495;28;20957;-74
2023/12/13 00:49:51;;;;;;;7.70;6.63;;;8.80;99.90;;;8.18;100.00;96426.63;5057246;28;20441;-74
2023/12/13 00:52:19;;;;;;;8.20;6.67;;;8.80;99.90;;;8.15;100.00;96408.28;5046541;28;20473;-75
2023/12/13 00:54:47;;;;;;;6.30;5.70;;;8.80;99.90;;;8.24;100.00;96419.47;5045387;28;20464;-75
2023/12/13 00:57:15;;;;;;;7.63;6.83;;;8.80;99.90;;;8.25;100.00;96414.88;5047462;28;20532;-73
2023/12/13 00:59:43;;;;;;;6.73;6.03;;;8.80;99.90;;;8.23;100.00;96402.50;5048877;28;20455;-73
2023/12/13 01:02:10;;;;;;;7.10;6.07;;;8.70;99.90;;;7.89;100.00;96358.56;5048359;28;20458;-77
2023/12/13 01:04:38;;;;;;;6.33;5.43;;;8.70;99.90;;;8.29;100.00;96410.69;5058564;28;20669;-72
2023/12/13 01:07:06;;;;;;;6.23;5.63;;;8.70;99.90;;;8.18;100.00;96415.88;5049410;28;20449;-75
2023/12/13 01:09:34;;;;;;;6.40;5.80;;;8.70;99.90;;;8.21;100.00;96417.25;5046089;28;20457;-75
2023/12/13 01:12:02;;;;;;;7.63;5.43;;;8.70;99.90;;;8.25;100.00;96420.28;5047273;28;20461;-74
2023/12/13 01:14:29;;;;;;;5.57;5.07;;;8.70;99.90;;;8.20;100.00;96421.81;5047335;28;20930;-74
2023/12/13 01:16:56;;;;;;;6.97;5.40;;;8.70;99.90;;;8.26;100.00;96411.13;5047489;28;20455;-75
2023/12/13 01:19:25;;;;;;;6.30;5.27;;;8.70;99.90;;;8.20;100.00;96419.13;5050761;28;21013;-74
2023/12/13 01:21:52;;;;;;;5.40;4.90;;;8.70;99.90;;;8.20;100.00;96411.06;5047616;28;20445;-75
2023/12/13 01:24:20;;;;;;;4.73;4.27;;;8.70;99.90;;;8.06;100.00;96415.91;5046129;28;20488;-75
2023/12/13 01:26:49;;;;;;;5.00;4.43;;;8.50;99.90;;;8.03;100.00;96400.22;5043531;28;20458;-74
2023/12/13 01:29:16;;;;;;;4.30;3.90;;;8.50;99.90;;;8.18;100.00;96410.47;5044192;28;20566;-74
2023/12/13 01:31:44;;;;;;;6.53;3.67;;;8.60;99.90;;;8.14;100.00;96406.66;5043219;28;20457;-74
2023/12/13 01:34:11;;;;;;;4.30;3.90;;;8.60;99.90;;;8.13;100.00;96407.69;5041977;28;20442;-75
2023/12/13 01:36:42;;;;;;;3.43;3.00;;;8.60;99.90;;;7.76;100.00;96347.00;5049073;28;20511;-75
2023/12/13 01:39:09;;;;;;;3.57;3.27;;;8.50;99.90;;;7.67;100.00;96340.38;5046243;28;20561;-75
2023/12/13 01:41:37;;;;;;;4.17;3.77;;;8.50;99.90;;;8.11;100.00;96404.41;5048374;28;20454;-74
2023/12/13 01:44:06;;;;;;;3.47;3.17;;;8.50;99.90;;;7.96;100.00;96398.72;5044719;28;20469;-74
2023/12/13 01:46:33;;;;;;;3.20;2.90;;;8.40;99.90;;;7.84;100.00;96399.59;5047311;28;20535;-74
2023/12/13 01:49:01;;;;;;;3.20;2.93;;;8.40;99.90;;;7.84;100.00;96410.34;5049737;28;20458;-74
2023/12/13 01:51:30;;;;;;;3.80;3.13;;;8.40;99.90;;;7.83;100.00;96414.09;5056440;28;20927;-73
2023/12/13 01:53:57;;;;;;;3.30;3.00;;;8.30;99.90;;;7.76;100.00;96408.84;5041155;28;20458;-73
2023/12/13 01:56:25;;;;;;;3.30;2.93;;;8.30;99.90;;;7.80;100.00;96417.22;5054610;28;20938;-73
2023/12/13 01:58:52;;;;;;;4.13;3.80;;;8.30;99.90;;;7.76;100.00;96413.41;5045485;28;20454;-73
2023/12/13 02:01:21;;;;;;;3.40;3.10;;;8.30;99.90;;;7.71;100.00;96415.97;5061658;28;20453;-72
2023/12/13 02:03:49;;;;;;;2.83;2.60;;;8.20;99.90;;;7.75;100.00;96412.59;5044466;28;20545;-74
2023/12/13 02:06:17;;;;;;;2.67;2.47;;;8.30;99.90;;;7.70;100.00;96408.97;5055446;28;20473;-73
2023/12/13 02:08:44;;;;;;;3.03;2.30;;;8.30;99.90;;;7.68;100.00;96403.81;5048039;28;20637;-75
2023/12/13 02:11:12;;;;;;;4.00;2.13;;;8.30;99.90;;;7.56;100.00;96405.69;5046632;28;20455;-73
2023/12/13 02:13:39;;;;;;;1.73;1.43;;;8.20;99.90;;;7.55;100.00;96402.22;5057556;28;20454;-73
2023/12/13 02:16:07;;;;;;;1.80;1.67;;;8.10;99.90;;;7.55;100.00;96406.75;5040581;28;20461;-74
2023/12/13 02:18:37;;;;;;;2.40;1.60;;;8.20;99.90;;;7.47;100.00;96410.63;5054230;28;20493;-74
2023/12/13 02:21:05;;;;;;;1.87;1.60;;;8.10;99.90;;;7.44;100.00;96400.34;5046378;28;20453;-74
2023/12/13 02:23:33;;;;;;;3.93;1.80;;;8.10;99.90;;;7.46;100.00;96398.25;5043300;28;20520;-75
2023/12/13 02:26:02;;;;;;;3.70;1.20;;;8.00;99.90;;;7.49;100.00;96405.81;5048458;28;20525;-74
2023/12/13 02:28:31;;;;;;;2.70;1.60;;;8.00;99.90;;;7.52;100.00;96405.38;5044327;28;20461;-74
2023/12/13 02:30:59;;;;;;;2.33;1.50;;;8.00;99.90;;;7.51;100.00;96403.75;5052348;28;20468;-74
2023/12/13 02:33:29;;;;;;;2.97;1.57;;;8.00;99.90;;;7.69;100.00;96401.97;5061051;28;20814;-74
2023/12/13 02:35:58;;;;;;;2.80;1.83;;;8.10;99.90;;;7.60;100.00;96394.25;5050138;28;20945;-74
2023/12/13 02:38:26;;;;;;;2.90;1.50;;;8.10;99.90;;;7.64;100.00;96394.59;5058235;28;20457;-73
2023/12/13 02:40:55;;;;;;;1.87;1.53;;;8.10;99.90;;;7.53;100.00;96404.31;5044214;28;20541;-74
2023/12/13 02:43:22;;;;;;;6.43;1.53;;;8.00;99.90;;;7.40;100.00;96399.19;5044342;28;20458;-75
2023/12/13 02:45:49;;;;;;;4.40;1.37;;;7.90;99.90;;;7.21;100.00;96405.50;5041134;28;20558;-75
2023/12/13 02:48:17;;;;;;;1.90;1.10;;;7.80;99.90;;;7.19;100.00;96414.81;5047357;28;20460;-75
2023/12/13 02:50:45;;;;;;;3.13;1.40;;;7.70;99.90;;;7.02;100.00;96410.16;5046049;28;20868;-75
2023/12/13 02:53:13;;;;;;;2.93;1.20;;;7.50;99.90;;;6.91;100.00;96403.72;5051600;28;20456;-75
2023/12/13 02:55:41;;;;;;;2.27;1.30;;;7.40;99.90;;;6.86;100.00;96394.72;5045597;28;20463;-75
2023/12/13 02:58:09;;;;;;;2.33;1.50;;;7.40;99.90;;;6.87;100.00;96390.97;5043719;28;20446;-76
2023/12/13 03:00:37;;;;;;;1.70;1.20;;;7.40;99.90;;;6.84;100.00;96396.81;5041834;28;20464;-73
2023/12/13 03:03:04;;;;;;;3.53;1.33;;;7.30;99.90;;;6.79;100.00;96390.28;5041729;28;20443;-74
2023/12/13 03:05:31;;;;;;;3.90;1.60;;;7.30;99.90;;;6.77;100.00;96389.69;5040573;28;21027;-73
2023/12/13 03:07:59;;;;;;;3.60;1.90;;;7.30;99.90;;;6.89;100.00;96391.56;5049078;28;20560;-73
2023/12/13 03:10:27;;;;;;;3.50;1.23;;;7.30;99.90;;;7.09;100.00;96391.22;5046352;28;20462;-73
2023/12/13 03:12:55;;;;;;;4.27;1.83;;;7.50;99.90;;;7.20;100.00;96395.81;5043940;28;20458;-73
2023/12/13 03:15:24;;;;;;;1.37;1.20;;;7.60;99.90;;;7.11;100.00;96391.03;5044966;28;20442;-73
2023/12/13 03:17:51;;;;;;;1.67;1.10;;;7.60;99.90;;;7.09;100.00;96392.06;5046779;28;20561;-73
2023/12/13 03:20:19;;;;;;;3.47;1.17;;;7.60;99.90;;;7.06;100.00;96383.66;5043916;28;21022;-72
2023/12/13 03:22:46;;;;;;;2.63;1.00;;;7.60;99.90;;;6.66;100.00;96336.81;5061168;28;20511;-75
2023/12/13 03:25:14;;;;;;;4.43;1.10;;;7.50;99.90;;;7.05;100.00;96384.69;5056710;28;20980;-73
2023/12/13 03:27:42;;;;;;;4.60;1.33;;;7.50;99.90;;;7.12;100.00;96381.91;5058094;28;20465;-73
2023/12/13 03:30:12;;;;;;;2.03;1.00;;;7.60;99.90;;;7.10;100.00;96379.44;5055231;28;20441;-74
2023/12/13 03:32:41;;;;;;;3.63;1.03;;;7.60;99.90;;;7.04;100.00;96373.13;5064130;28;20441;-74
2023/12/13 03:35:09;;;;;;;6.37;1.17;;;7.60;99.90;;;6.60;100.00;96311.72;5060243;28;20460;-73
2023/12/13 03:37:37;;;;;;;2.20;1.03;;;7.50;99.90;;;6.89;100.00;96364.72;5056639;28;20453;-73
2023/12/13 03:40:05;;;;;;;8.17;1.03;;;7.40;99.90;;;6.80;100.00;96365.06;5057449;28;20453;-74
2023/12/13 03:42:32;;;;;;;3.40;1.20;;;7.30;99.90;;;6.74;100.00;96378.59;5055856;28;20539;-74
2023/12/13 03:45:01;;;;;;;3.60;0.90;;;7.30;99.90;;;6.71;100.00;96374.50;5071171;28;20475;-73
2023/12/13 03:47:28;;;;;;;2.50;1.17;;;7.30;99.90;;;6.66;100.00;96372.50;5050930;28;20485;-74
2023/12/13 03:49:56;;;;;;;3.20;1.20;;;7.30;99.90;;;6.67;100.00;96370.66;5052299;28;20477;-73
2023/12/13 03:52:24;;;;;;;4.10;1.30;;;7.20;99.90;;;6.69;100.00;96378.50;5058449;28;20445;-75
2023/12/13 03:54:52;;;;;;;3.47;1.63;;;7.30;99.90;;;6.78;100.00;96372.56;5045995;28;20476;-73
2023/12/13 03:57:20;;;;;;;2.93;1.10;;;7.40;99.90;;;6.79;100.00;96384.91;5067520;28;20465;-71
2023/12/13 03:59:47;;;;;;;3.27;1.30;;;7.40;99.90;;;6.95;100.00;96371.84;5048014;28;20457;-72
2023/12/13 04:02:15;;;;;;;4.40;1.27;;;7.50;99.90;;;6.93;100.00;96379.34;5047290;28;21064;-72
2023/12/13 04:04:42;;;;;;;2.53;1.37;;;7.50;99.90;;;6.95;100.00;96388.78;5046916;28;20691;-73
2023/12/13 04:07:11;;;;;;;4.03;1.30;;;7.60;99.90;;;7.00;100.00;96380.03;5054137;28;20441;-73
2023/12/13 04:09:39;;;;;;;3.27;1.30;;;7.60;99.90;;;6.95;100.00;96361.91;5053939;28;20446;-74
2023/12/13 04:12:07;;;;;;;2.60;0.90;;;7.60;99.90;;;7.07;100.00;96375.38;5059911;28;20830;-73
2023/12/13 04:14:34;;;;;;;6.03;1.00;;;7.70;99.90;;;7.01;100.00;96389.72;5046337;28;20460;-75
2023/12/13 04:17:02;;;;;;;6.10;1.40;;;7.60;99.90;;;7.01;100.00;96389.72;5045409;28;20519;-74
2023/12/13 04:19:30;;;;;;;2.50;1.30;;;7.60;99.90;;;6.66;100.00;96348.34;5044912;28;20464;-72
2023/12/13 04:21:58;;;;;;;1.03;0.80;;;7.50;99.90;;;6.90;100.00;96383.28;5047446;28;20483;-73
2023/12/13 04:24:26;;;;;;;2.07;1.03;;;7.50;99.90;;;6.84;100.00;96380.72;5048979;28;20460;-75
2023/12/13 04:26:53;;;;;;;2.73;2.53;;;7.40;99.90;;;6.91;100.00;96373.38;5062920;28;20479;-74
2023/12/13 04:29:21;;;;;;;3.70;1.23;;;7.50;99.90;;;6.87;100.00;96378.38;5047412;28;20538;-74
2023/12/13 04:31:50;;;;;;;2.50;1.00;;;7.50;99.90;;;6.94;100.00;96380.97;5048021;28;20457;-74
2023/12/13 04:34:18;;;;;;;1.87;1.17;;;7.50;99.90;;;7.03;100.00;96384.94;5051451;28;20471;-72
2023/12/13 04:36:46;;;;;;;1.10;1.00;;;7.60;99.90;;;6.50;100.00;96293.50;5041701;28;20568;-73
2023/12/13 04:39:13;;;;;;;3.00;1.60;;;7.70;99.90;;;7.07;100.00;96383.44;5062889;28;20454;-74
2023/12/13 04:41:41;;;;;;;2.20;1.17;;;7.70;99.90;;;7.07;100.00;96383.44;5046136;28;21025;-74
2023/12/13 04:44:12;;;;;;;4.50;1.70;;;7.70;99.90;;;7.13;100.00;96384.38;5045153;28;20476;-74
2023/12/13 04:46:39;;;;;;;4.70;1.60;;;7.70;99.90;;;7.22;100.00;96379.47;5044026;28;20871;-74
2023/12/13 04:49:07;;;;;;;3.70;1.57;;;7.80;99.90;;;7.21;100.00;96381.31;5045496;28;20867;-72
2023/12/13 04:51:35;;;;;;;3.90;1.17;;;7.80;99.70;;;7.20;100.00;96373.47;5048017;28;21075;-75
2023/12/13 04:54:03;;;;;;;3.80;1.47;;;7.90;99.90;;;7.20;100.00;96374.31;5046172;28;20467;-74
2023/12/13 04:56:31;;;;;;;1.53;1.23;;;7.80;99.90;;;7.26;100.00;96374.41;5065051;28;20503;-74
2023/12/13 04:58:59;;;;;;;2.60;1.00;;;7.90;99.80;;;7.23;100.00;96373.03;5042923;28;20632;-74
2023/12/13 05:01:26;;;;;;;1.40;1.10;;;7.90;99.30;;;7.24;100.00;96388.09;5045609;28;20518;-73
2023/12/13 05:03:54;;;;;;;3.67;1.23;;;7.90;99.00;;;7.39;100.00;96378.75;5046795;28;20464;-72
2023/12/13 05:06:21;;;;;;;2.93;1.00;;;8.00;99.50;;;7.24;100.00;96371.97;5060939;28;20507;-74
2023/12/13 05:08:49;;;;;;;1.73;0.80;;;8.00;98.70;;;7.36;100.00;96378.16;5057078;28;20461;-73
2023/12/13 05:11:17;;;;;;;2.23;1.13;;;8.00;98.90;;;7.33;100.00;96373.25;5048853;28;20527;-76
2023/12/13 05:13:44;;;;;;;1.83;1.20;;;8.00;98.90;;;7.41;100.00;96373.97;5047521;28;20932;-74
2023/12/13 05:16:13;;;;;;;2.80;1.33;;;8.00;99.60;;;7.34;100.00;96377.56;5044293;28;20957;-74
2023/12/13 05:18:41;;;;;;;6.17;1.80;;;8.00;98.90;;;7.36;100.00;96380.84;5047390;28;20445;-73
2023/12/13 05:21:08;;;;;;;2.33;1.90;;;8.00;99.00;;;7.32;100.00;96368.94;5050653;28;20480;-75
2023/12/13 05:23:36;;;;;;;2.83;1.90;;;8.00;98.90;;;7.35;100.00;96376.53;5059655;28;20462;-74
2023/12/13 05:26:04;;;;;;;2.10;1.90;;;8.00;99.00;;;6.90;100.00;96302.75;5058213;28;20470;-75
2023/12/13 05:28:31;;;;;;;2.10;1.90;;;7.90;98.90;;;7.22;100.00;96382.16;5045095;28;21000;-74
2023/12/13 05:30:59;;;;;;;4.33;2.90;;;7.80;99.10;;;7.15;100.00;96371.53;5040191;28;20540;-73
2023/12/13 05:33:27;;;;;;;8.87;3.80;;;7.80;99.90;;;6.96;100.00;96365.44;5056479;28;20468;-75
2023/12/13 05:35:55;;;;;;;15.27;3.50;;;7.60;99.90;;;6.98;100.00;96371.38;5042935;28;20452;-73
2023/12/13 05:38:23;;;;;;;9.60;4.23;;;7.60;99.90;;;7.06;100.00;96371.06;5056163;28;20456;-71
2023/12/13 05:40:51;;;;;;;11.70;4.60;;;7.70;99.90;;;6.97;100.00;96375.13;5045862;28;20945;-70
2023/12/13 05:43:18;;;;;;;13.03;5.23;;;7.70;99.90;;;7.22;100.00;96379.47;5041226;28;20845;-70
2023/12/13 05:45:46;;;;;;;8.80;4.97;;;7.70;99.90;;;7.18;100.00;96370.22;5055870;28;20484;-70
2023/12/13 05:48:13;;;;;;;12.13;3.90;;;7.70;99.90;;;7.64;100.00;96379.28;5047549;28;20468;-70
2023/12/13 05:50:41;;;;;;;5.87;4.20;;;8.00;99.90;;;7.64;100.00;96373.09;5049355;28;20469;-70
2023/12/13 05:53:08;;;;;;;5.70;4.30;;;8.10;99.90;;;7.53;100.00;96377.44;5039790;28;20456;-75
2023/12/13 05:55:36;;;;;;;4.97;3.57;;;8.10;99.70;;;7.51;100.00;96387.63;5043684;28;20462;-73
2023/12/13 05:58:04;;;;;;;4.23;3.80;;;8.10;98.70;;;7.34;100.00;96387.50;5042584;28;20649;-76
2023/12/13 06:00:31;;;;;;;3.27;2.93;;;8.10;97.80;;;7.33;100.00;96386.69;5045012;28;20457;-76
2023/12/13 06:02:59;;;;;;;4.77;3.00;;;8.00;98.00;;;7.31;100.00;96385.28;5042346;28;20514;-75
2023/12/13 06:05:27;;;;;;;5.90;2.77;;;7.90;98.00;;;7.19;100.00;96370.00;5046180;28;20591;-75
2023/12/13 06:07:56;;;;;;;3.40;2.30;;;7.90;98.50;;;7.32;100.00;96366.25;5057825;28;20449;-77
2023/12/13 06:10:23;;;;;;;2.73;2.27;;;8.00;98.50;;;7.19;100.00;96377.22;5059917;28;20441;-75
2023/12/13 06:12:52;;;;;;;2.97;2.03;;;7.90;98.20;;;7.29;100.00;96376.66;5043208;28;20457;-75
2023/12/13 06:15:19;;;;;;;5.40;2.03;;;7.90;98.60;;;7.30;100.00;96362.97;5043310;28;20454;-74
2023/12/13 06:17:48;;;;;;;3.77;2.17;;;7.90;98.50;;;7.43;100.00;96372.69;5039499;28;20472;-83
2023/12/13 06:20:15;;;;;;;3.03;2.10;;;7.90;98.10;;;7.42;100.00;96375.59;5065552;28;20469;-80
2023/12/13 06:22:43;;;;;;;4.27;2.30;;;8.00;97.70;;;7.33;100.00;96373.25;5041859;28;21003;-87
2023/12/13 06:25:12;;;;;;;4.07;2.13;;;8.00;97.50;;;7.30;100.00;96371.03;5049817;28;20549;-77
2023/12/13 06:27:40;;;;;;;4.30;2.47;;;7.90;97.80;;;7.41;100.00;96373.97;5042650;28;20513;-71
2023/12/13 06:30:10;;;;;;;5.13;2.13;;;8.00;98.00;;;7.39;100.00;96381.44;5038224;28;20452;-72
2023/12/13 06:32:39;;;;;;;3.20;2.37;;;8.00;97.60;;;7.37;100.00;96376.28;5039778;28;20460;-79
2023/12/13 06:35:07;;;;;;;3.03;1.20;;;8.00;97.60;;;7.38;100.00;96369.84;5056535;28;20455;-72
2023/12/13 06:37:34;;;;;;;2.40;1.43;;;8.00;97.50;;;7.27;100.00;96365.31;5047738;28;20442;-77
2023/12/13 06:40:03;;;;;;;3.20;1.77;;;8.00;97.30;;;7.28;100.00;96367.78;5040946;28;20938;-75
2023/12/13 06:42:32;;;;;;;5.27;2.00;;;7.90;97.30;;;7.30;100.00;96368.34;5058971;28;20980;-78
2023/12/13 06:44:59;;;;;;;3.53;1.37;;;7.90;97.50;;;7.45;100.00;96359.00;5048637;28;20453;-77
2023/12/13 06:47:28;;;;;;;2.10;1.77;;;8.00;97.90;;;7.40;100.00;96362.38;5039330;28;20505;-74
2023/12/13 06:49:55;;;;;;;4.63;2.40;;;8.00;97.60;;;7.60;100.00;96366.56;5044677;28;20963;-75
2023/12/13 06:52:23;;;;;;;3.00;1.80;;;8.10;97.80;;;7.26;100.00;96302.72;5060505;28;20810;-71
2023/12/13 06:54:50;;;;;;;2.33;1.17;;;8.10;97.20;;;7.62;100.00;96370.63;5047035;28;20464;-75
2023/12/13 06:57:19;;;;;;;3.83;2.10;;;8.10;96.70;;;7.68;100.00;96370.75;5040975;28;20547;-81
2023/12/13 06:59:48;;;;;;;1.87;1.10;;;8.20;95.90;;;7.75;100.00;96374.13;5039731;28;20519;-73
2023/12/13 07:02:15;;;;;;;2.23;1.10;;;8.20;96.00;;;7.71;98.61;96375.66;5043436;28;21025;-72
2023/12/13 07:04:43;;;;;;;2.40;1.30;;;8.20;95.00;;;7.67;98.69;96379.88;5033754;28;20483;-71
2023/12/13 07:07:14;;;;;;;1.37;1.10;;;8.20;94.30;;;7.58;98.66;96369.47;5038270;28;20474;-77
2023/12/13 07:09:44;;;;;;;2.50;1.20;;;8.20;93.90;;;7.43;100.00;96366.47;5037197;28;20536;-74
2023/12/13 07:12:11;;;;;;;2.63;1.43;;;8.10;94.50;;;7.48;99.35;96364.72;5050735;28;20461;-76
2023/12/13 07:14:38;;;;;;;2.23;1.53;;;8.10;94.80;;;7.48;99.79;96369.25;5043877;28;20449;-77
2023/12/13 07:17:08;;;;;;;8.53;6.70;;;8.00;95.10;;;7.57;99.38;96367.84;5041899;28;20459;-77
2023/12/13 07:19:36;;;;;;;5.93;3.87;;;8.10;95.40;;;7.43;99.36;96318.09;5040901;28;20874;-73
2023/12/13 07:22:03;;;;;;;11.43;6.33;;;8.20;95.40;;;7.67;99.50;96355.69;5038344;28;20489;-72
2023/12/13 07:24:31;;;;;;;4.50;2.53;;;8.20;95.00;;;7.93;98.34;96351.63;5038738;28;20458;-81
2023/12/13 07:26:58;;;;;;;3.83;1.67;;;8.40;95.30;;;7.94;97.87;96358.66;5038223;28;20545;-74
2023/12/13 07:29:25;;;;;;;2.10;1.40;;;8.40;94.10;;;7.90;97.30;96363.69;5052722;28;20507;-72
2023/12/13 07:31:53;;;;;;;4.80;2.40;;;8.40;94.00;;;7.92;96.49;96364.25;5038982;28;21006;-72
2023/12/13 07:34:21;;;;;;;3.60;2.50;;;8.40;93.90;;;7.98;97.00;96350.91;5045530;28;20509;-70
2023/12/13 07:36:49;;;;;;;4.57;3.50;;;8.40;94.00;;;8.20;95.51;96346.47;5036039;28;21096;-72
2023/12/13 07:39:17;;;;;;;5.23;3.63;;;8.50;94.00;;;8.02;95.48;96354.75;5040520;28;21163;-72
2023/12/13 07:41:45;;;;;;;6.53;3.77;;;8.50;93.20;;;8.00;95.85;96348.81;5053255;28;20878;-73
2023/12/13 07:44:13;;;;;;;3.90;3.07;;;8.50;93.20;;;8.02;96.26;96346.69;5035684;28;20469;-72
2023/12/13 07:46:40;;;;;;;5.97;2.87;;;8.50;93.10;;;8.11;94.86;96350.59;5040723;28;20473;-72
2023/12/13 07:49:08;;;;;;;8.50;2.90;;;8.50;93.10;;;8.23;94.71;96348.69;5040519;28;20458;-72
2023/12/13 07:51:36;;;;;;;5.87;3.20;;;8.60;93.10;;;8.16;94.88;96347.19;5040866;28;20512;-73
2023/12/13 07:54:04;;;;;;;2.97;2.10;;;8.60;92.90;;;7.88;94.27;96301.25;5038551;28;20536;-72
2023/12/13 07:56:31;;;;;;;5.30;2.30;;;8.60;92.50;;;8.23;94.30;96351.38;5037051;28;20441;-74
2023/12/13 07:58:59;;;;;;;4.17;1.90;;;8.70;92.50;;;8.53;92.89;96348.69;5041149;28;20453;-73
2023/12/13 08:01:27;;;;;;;3.23;2.20;;;8.70;92.40;;;8.49;92.33;96351.00;5038468;28;20453;-72
2023/12/13 08:03:56;;;;;;;3.67;2.33;;;8.80;92.10;;;8.37;92.23;96343.00;5039485;28;20506;-73
2023/12/13 08:06:24;;;;;;;11.83;8.70;;;8.70;91.80;;;8.35;92.79;96351.34;5038516;28;20639;-73
2023/12/13 08:08:52;;;;;;;6.83;4.83;;;8.70;91.90;;;8.42;91.52;96351.19;5044555;28;20542;-72
2023/12/13 08:11:20;;;;;;;4.03;3.10;;;8.70;91.60;;;8.20;92.01;96359.94;5045858;28;20523;-73
2023/12/13 08:13:47;;;;;;;2.07;1.60;;;8.70;91.30;;;8.57;91.34;96355.22;5044420;28;20457;-73
2023/12/13 08:16:16;;;;;;;2.37;1.60;;;8.80;91.80;;;8.06;88.92;96281.41;5044781;28;20576;-71
2023/12/13 08:18:43;;;;;;;2.03;1.40;;;8.90;90.90;;;8.20;90.06;96291.88;5058494;28;20469;-73
2023/12/13 08:21:10;;;;;;;4.73;1.77;;;8.90;90.90;;;8.46;90.55;96349.63;5044340;28;20468;-74
2023/12/13 08:23:37;;;;;;;2.70;1.80;;;8.80;91.00;;;8.55;89.99;96344.69;5043455;28;20466;-73
2023/12/13 08:26:06;;;;;;;3.47;1.80;;;8.80;91.00;;;8.56;90.58;96346.34;5058468;28;20488;-72
2023/12/13 08:28:34;;;;;;;2.53;1.50;;;8.90;91.20;;;8.55;90.20;96347.38;5042909;28;20468;-73
2023/12/13 08:31:03;;;;;;;5.60;2.07;;;8.90;91.00;;;8.64;89.68;96347.81;5043691;28;20469;-72
2023/12/13 08:33:31;;;;;;;1.83;1.60;;;8.90;91.00;;;8.83;89.14;96336.78;5053035;28;20457;-73
2023/12/13 08:35:59;;;;;;;2.60;2.17;;;9.00;91.00;;;8.96;89.28;96333.75;5040215;28;20458;-71
2023/12/13 08:38:27;;;;;;;2.53;2.10;;;9.10;91.20;;;8.83;88.89;96343.00;5041418;28;20475;-70
2023/12/13 08:40:54;;;;;;;4.37;2.47;;;9.20;90.60;;;8.98;89.18;96344.31;5043385;28;20989;-69
2023/12/13 08:43:23;;;;;;;3.97;2.43;;;9.30;90.90;;;9.08;87.72;96347.13;5049554;28;20461;-71
2023/12/13 08:45:50;;;;;;;4.63;2.50;;;9.30;90.60;;;9.10;87.77;96344.19;5043111;28;20461;-72
2023/12/13 08:48:18;;;;;;;7.43;5.50;;;9.40;90.50;;;9.03;88.59;96338.97;5040816;28;20489;-72
2023/12/13 08:50:46;;;;;;;6.70;5.50;;;9.40;90.60;;;9.29;87.73;96337.47;5043406;28;20927;-72
2023/12/13 08:53:13;;;;;;;3.50;2.40;;;9.40;90.40;;;9.20;86.84;96345.16;5045095;28;20489;-73
2023/12/13 08:55:41;;;;;;;8.80;5.53;;;9.50;90.20;;;9.43;86.31;96345.19;5044718;28;20462;-72
2023/12/13 08:58:08;;;;;;;8.67;5.57;;;9.60;90.30;;;9.43;86.08;96358.66;5043067;28;20449;-71
2023/12/13 09:00:38;;;;;;;5.40;3.60;;;9.70;90.00;;;9.25;86.97;96341.72;5041679;28;20452;-73
2023/12/13 09:03:05;;;;;;;6.37;2.67;;;9.60;89.80;;;9.18;87.85;96341.09;5047144;28;20453;-73
2023/12/13 09:05:32;;;;;;;4.83;2.80;;;9.60;90.00;;;9.15;87.66;96344.25;5039613;28;20482;-71
2023/12/13 09:08:00;;;;;;;3.47;2.43;;;9.60;90.00;;;8.85;90.07;96346.25;5038668;28;20492;-71
2023/12/13 09:10:27;;;;;;;2.63;2.20;;;9.40;90.30;;;8.69;91.01;96320.94;5043515;28;20511;-72
2023/12/13 09:12:54;;;;;;;4.70;2.33;;;9.30;90.80;;;8.86;91.42;96342.50;5052478;28;20756;-73
2023/12/13 09:15:23;;;;;;;2.53;2.33;;;9.30;90.90;;;9.03;91.18;96345.19;5041817;28;20453;-73
2023/12/13 09:17:51;;;;;;;4.60;2.80;;;9.30;91.40;;;9.07;91.00;96340.94;5041536;28;20541;-70
2023/12/13 09:20:20;;;;;;;4.00;2.57;;;9.40;91.60;;;9.11;90.94;96343.13;5043174;28;20452;-72
2023/12/13 09:22:47;;;;;;;4.17;2.10;;;9.50;91.40;;;9.22;91.22;96336.84;5038029;28;20467;-73
2023/12/13 09:25:14;;;;;;;4.10;2.40;;;9.60;91.20;;;9.39;89.44;96335.97;5041284;28;20461;-73
2023/12/13 09:27:44;;;;;;;3.03;2.50;;;9.70;91.00;;;9.49;89.58;96328.84;5043118;28;20473;-72
2023/12/13 09:30:13;;;;;;;4.17;2.50;;;9.80;90.90;;;9.69;88.57;96329.34;5043437;28;20461;-74
2023/12/13 09:32:41;;;;;;;2.73;2.30;;;9.90;91.00;;;9.53;89.05;96323.78;5056855;28;20573;-72
2023/12/13 09:35:10;;;;;;;2.80;1.90;;;9.90;90.60;;;9.59;87.91;96320.06;5042229;28;20455;-73
2023/12/13 09:37:37;;;;;;;3.70;2.53;;;10.00;90.00;;;9.45;89.08;96321.50;5043030;28;20450;-72
2023/12/13 09:40:07;;;;;;;6.37;2.60;;;9.90;90.30;;;9.84;88.26;96336.78;5050946;28;20479;-73
2023/12/13 09:42:36;;;;;;;7.10;2.67;;;10.10;90.10;;;10.10;85.59;96327.13;5042764;28;20549;-73
2023/12/13 09:45:06;;;;;;;5.27;2.50;;;10.30;89.30;;;10.31;84.00;96322.75;5056297;28;20454;-72
2023/12/13 09:47:35;;;;;;;6.77;2.10;;;10.50;88.60;;;10.46;83.98;96319.41;5056337;28;20485;-73
2023/12/13 09:50:02;;;;;;;3.40;1.90;;;10.60;88.50;;;10.59;82.21;96325.44;5040723;28;20454;-73
2023/12/13 09:52:32;;;;;;;5.43;1.87;;;10.80;87.50;;;10.57;82.36;96330.31;5040740;28;20473;-73
2023/12/13 09:55:04;;;;;;;3.97;1.80;;;10.90;87.00;;;10.66;81.11;96326.03;5043916;28;21004;-72
2023/12/13 09:57:31;;;;;;;3.00;2.40;;;11.00;86.40;;;10.69;79.92;96319.31;5041532;28;20578;-71
2023/12/13 09:59:59;;;;;;;4.47;4.00;;;11.10;85.80;;;10.53;82.06;96321.88;5053884;28;20535;-71
2023/12/13 10:02:26;;;;;;;2.60;2.00;;;10.90;86.20;;;10.76;80.94;96326.13;5042265;28;20462;-70
2023/12/13 10:04:55;;;;;;;6.40;4.27;;;11.00;86.10;;;10.67;81.05;96329.56;5041726;28;20631;-73
2023/12/13 10:07:23;;;;;;;3.53;1.80;;;11.00;85.70;;;10.23;82.40;96325.06;5052825;28;20869;-73
2023/12/13 10:09:55;;;;;;;3.93;2.80;;;10.90;85.60;;;10.41;82.31;96318.53;5044503;28;20598;-77
2023/12/13 10:12:22;;;;;;;4.37;1.80;;;10.80;85.80;;;10.77;81.02;96316.94;5050893;28;20958;-72
2023/12/13 10:14:51;;;;;;;4.07;2.25;;;11.10;86.00;;;11.04;79.50;96316.06;5042398;28;20455;-77
2023/12/13 10:17:21;;;;;;;2.70;1.33;;;11.30;85.70;;;10.39;80.43;96321.47;5040816;28;20191;-78
2023/12/13 10:19:49;;;;;;;4.23;1.87;;;11.10;84.90;;;10.69;81.30;96316.63;5043489;28;20453;-76
2023/12/13 10:22:17;;;;;;;2.80;1.90;;;11.10;85.70;;;10.42;82.13;96307.50;5046625;28;20459;-76
2023/12/13 10:24:45;;;;;;;2.10;1.53;;;10.80;85.70;;;10.89;80.10;96321.38;5055449;28;20473;-78
2023/12/13 10:27:15;;;;;;;2.03;1.83;;;11.10;86.50;;;10.71;80.10;96309.91;5042476;28;20477;-76
2023/12/13 10:29:42;;;;;;;2.80;1.60;;;11.10;85.40;;;10.73;80.03;96315.84;5055012;28;20456;-78